createdAt,value
2017-10-20T00:00:49.055Z,48.93
2017-10-20T00:03:16.624Z,48.63
2017-10-20T00:05:44.180Z,45.37
2017-10-20T00:08:11.748Z,42.20
2017-10-20T00:10:39.290Z,41.80
2017-10-20T00:13:06.823Z,40.87
2017-10-20T00:15:34.360Z,40.60
2017-10-20T00:18:01.893Z,40.40
2017-10-20T00:20:29.544Z,44.43
2017-10-20T00:22:57.929Z,42.87
2017-10-20T00:25:25.780Z,40.30
2017-10-20T00:27:53.360Z,38.90
2017-10-20T00:30:20.901Z,46.30
2017-10-20T00:32:48.476Z,41.63
2017-10-20T00:35:16.136Z,39.13
2017-10-20T00:37:43.669Z,43.67
2017-10-20T00:40:11.211Z,41.87
2017-10-20T00:42:38.752Z,46.55
2017-10-20T00:45:06.284Z,41.83
2017-10-20T00:47:33.827Z,40.33
2017-10-20T00:50:01.371Z,42.17
2017-10-20T00:52:28.958Z,38.43
2017-10-20T00:54:56.522Z,41.20
2017-10-20T00:57:24.060Z,40.03
2017-10-20T00:59:51.599Z,41.67
2017-10-20T01:02:19.137Z,40.80
2017-10-20T01:04:46.773Z,39.73
2017-10-20T01:07:14.306Z,39.53
2017-10-20T01:09:41.845Z,36.57
2017-10-20T01:12:09.389Z,37.50
2017-10-20T01:14:36.933Z,35.17
2017-10-20T01:17:04.472Z,37.17
2017-10-20T01:19:32.375Z,42.43
2017-10-20T01:21:59.926Z,40.20
2017-10-20T01:24:27.455Z,35.83
2017-10-20T01:26:55.026Z,40.43
2017-10-20T01:29:22.734Z,39.80
2017-10-20T01:31:50.267Z,37.17
2017-10-20T01:34:17.893Z,36.80
2017-10-20T01:36:45.476Z,41.23
2017-10-20T01:39:13.020Z,39.73
2017-10-20T01:41:41.335Z,33.70
2017-10-20T01:44:10.056Z,35.77
2017-10-20T01:46:37.585Z,35.23
2017-10-20T01:49:05.198Z,36.60
2017-10-20T01:51:32.745Z,39.20
2017-10-20T01:54:00.303Z,40.50
2017-10-20T01:56:27.836Z,37.07
2017-10-20T01:58:55.368Z,34.77
2017-10-20T02:01:22.948Z,37.67
2017-10-20T02:03:50.488Z,39.30
2017-10-20T02:06:18.109Z,36.77
2017-10-20T02:08:45.644Z,39.53
2017-10-20T02:11:13.239Z,35.40
2017-10-20T02:13:41.461Z,37.67
2017-10-20T02:16:09.088Z,33.50
2017-10-20T02:18:37.464Z,35.70
2017-10-20T02:21:05.813Z,36.10
2017-10-20T02:23:34.112Z,46.33
2017-10-20T02:26:02.453Z,38.97
2017-10-20T02:28:30.022Z,34.97
2017-10-20T02:30:57.565Z,37.23
2017-10-20T02:33:25.186Z,36.50
2017-10-20T02:35:52.730Z,33.90
2017-10-20T02:38:20.309Z,33.60
2017-10-20T02:40:47.864Z,35.70
2017-10-20T02:43:15.389Z,35.60
2017-10-20T02:45:42.924Z,38.10
2017-10-20T02:48:10.541Z,37.73
2017-10-20T02:50:38.069Z,33.50
2017-10-20T02:53:05.601Z,35.87
2017-10-20T02:55:33.131Z,37.50
2017-10-20T02:58:00.693Z,34.63
2017-10-20T03:00:28.246Z,38.60
2017-10-20T03:02:55.808Z,33.03
2017-10-20T03:05:23.363Z,38.67
2017-10-20T03:07:50.896Z,38.03
2017-10-20T03:10:20.544Z,38.13
2017-10-20T03:12:48.092Z,35.10
2017-10-20T03:15:15.620Z,38.17
2017-10-20T03:17:43.158Z,37.40
2017-10-20T03:20:10.704Z,35.73
2017-10-20T03:22:38.238Z,37.20
2017-10-20T03:25:05.788Z,36.90
2017-10-20T03:27:33.323Z,33.10
2017-10-20T03:30:01.014Z,38.20
2017-10-20T03:32:28.547Z,34.40
2017-10-20T03:34:56.081Z,38.30
2017-10-20T03:37:23.611Z,36.07
2017-10-20T03:39:51.151Z,33.17
2017-10-20T03:42:18.693Z,42.70
2017-10-20T03:44:46.233Z,39.93
2017-10-20T03:47:13.773Z,34.80
2017-10-20T03:49:41.307Z,37.07
2017-10-20T03:52:08.852Z,34.73
2017-10-20T03:54:36.915Z,35.50
2017-10-20T03:57:04.481Z,37.23
2017-10-20T03:59:32.016Z,34.30
2017-10-20T04:02:00.519Z,33.70
2017-10-20T04:04:28.059Z,33.37
2017-10-20T04:06:55.648Z,38.23
2017-10-20T04:09:23.183Z,37.73
2017-10-20T04:11:50.711Z,38.57
2017-10-20T04:14:18.251Z,36.80
2017-10-20T04:16:45.790Z,41.77
2017-10-20T04:19:13.327Z,38.60
2017-10-20T04:21:40.912Z,39.40
2017-10-20T04:24:08.467Z,39.10
2017-10-20T04:26:36.007Z,37.77
2017-10-20T04:29:03.538Z,37.40
2017-10-20T04:31:32.089Z,36.97
2017-10-20T04:33:59.631Z,34.47
2017-10-20T04:36:27.168Z,35.07
2017-10-20T04:38:54.701Z,35.33
2017-10-20T04:41:22.425Z,35.20
2017-10-20T04:43:49.991Z,33.57
2017-10-20T04:46:18.263Z,38.07
2017-10-20T04:48:45.796Z,38.43
2017-10-20T04:51:13.347Z,38.53
2017-10-20T04:53:40.880Z,36.57
2017-10-20T04:56:08.411Z,37.17
2017-10-20T04:58:35.953Z,38.47
2017-10-20T05:01:03.598Z,35.93
2017-10-20T05:03:31.200Z,36.50
2017-10-20T05:05:58.760Z,39.00
2017-10-20T05:08:26.300Z,37.83
2017-10-20T05:10:53.833Z,34.57
2017-10-20T05:13:21.409Z,35.53
2017-10-20T05:15:48.941Z,38.33
2017-10-20T05:18:16.472Z,38.30
2017-10-20T05:20:44.001Z,35.73
2017-10-20T05:23:12.796Z,36.10
2017-10-20T05:25:40.324Z,35.57
2017-10-20T05:28:07.858Z,37.90
2017-10-20T05:30:35.397Z,35.77
2017-10-20T05:33:02.932Z,37.17
2017-10-20T05:35:30.472Z,34.30
2017-10-20T05:37:58.012Z,36.00
2017-10-20T05:40:25.624Z,34.07
2017-10-20T05:42:53.167Z,37.20
2017-10-20T05:45:20.695Z,35.40
2017-10-20T05:47:48.300Z,36.10
2017-10-20T05:50:19.227Z,38.30
2017-10-20T05:52:46.756Z,33.00
2017-10-20T05:55:14.289Z,37.63
2017-10-20T05:57:41.824Z,37.20
2017-10-20T06:00:09.383Z,35.07
2017-10-20T06:02:37.732Z,35.50
2017-10-20T06:05:05.266Z,37.20
2017-10-20T06:07:32.809Z,35.23
2017-10-20T06:10:00.352Z,36.10
2017-10-20T06:12:27.883Z,35.87
2017-10-20T06:14:55.457Z,36.30
2017-10-20T06:17:35.001Z,35.37
2017-10-20T06:20:02.540Z,34.63
2017-10-20T06:22:30.116Z,35.20
2017-10-20T06:24:57.656Z,33.97
2017-10-20T06:27:25.189Z,33.67
2017-10-20T06:29:53.624Z,35.57
2017-10-20T06:32:21.287Z,39.80
2017-10-20T06:34:48.913Z,36.13
2017-10-20T06:37:16.444Z,37.33
2017-10-20T06:39:44.788Z,33.17
2017-10-20T06:42:12.313Z,33.77
2017-10-20T06:44:40.700Z,37.03
2017-10-20T06:47:08.233Z,35.00
2017-10-20T06:49:35.772Z,36.10
2017-10-20T06:52:03.337Z,33.03
2017-10-20T06:54:30.871Z,32.80
2017-10-20T06:56:58.400Z,36.53
2017-10-20T06:59:25.938Z,38.40
2017-10-20T07:01:53.668Z,36.50
2017-10-20T07:04:21.309Z,37.17
2017-10-20T07:06:48.872Z,35.87
2017-10-20T07:09:16.409Z,32.63
2017-10-20T07:11:44.196Z,33.20
2017-10-20T07:14:11.794Z,34.80
2017-10-20T07:16:39.371Z,36.60
2017-10-20T07:22:10.898Z,34.10
2017-10-20T07:24:38.556Z,35.00
2017-10-20T07:27:06.420Z,34.03
2017-10-20T07:29:35.813Z,36.40
2017-10-20T07:32:03.433Z,33.43
2017-10-20T07:34:31.037Z,35.30
2017-10-20T07:36:58.573Z,33.57
2017-10-20T07:39:26.264Z,35.00
2017-10-20T07:41:53.799Z,32.77
2017-10-20T07:44:21.337Z,37.42
2017-10-20T07:46:50.170Z,36.03
2017-10-20T07:49:18.712Z,34.67
2017-10-20T07:51:46.288Z,32.40
2017-10-20T07:54:14.477Z,35.73
2017-10-20T07:56:42.023Z,31.00
2017-10-20T07:59:09.607Z,29.07
2017-10-20T08:01:37.147Z,32.97
2017-10-20T08:04:04.741Z,28.83
2017-10-20T08:06:32.286Z,31.53
2017-10-20T08:08:59.824Z,29.97
2017-10-20T08:11:28.140Z,29.10
2017-10-20T08:13:55.812Z,29.80
2017-10-20T08:16:24.418Z,28.60
2017-10-20T08:18:52.051Z,25.23
2017-10-20T08:21:19.593Z,28.90
2017-10-20T08:23:47.175Z,30.83
2017-10-20T08:26:14.710Z,28.60
2017-10-20T08:28:42.260Z,26.97
2017-10-20T08:31:09.796Z,26.67
2017-10-20T08:33:37.380Z,24.30
2017-10-20T08:36:04.972Z,25.57
2017-10-20T08:38:33.421Z,27.90
2017-10-20T08:41:02.054Z,24.77
2017-10-20T08:43:29.588Z,24.70
2017-10-20T08:45:57.157Z,29.37
2017-10-20T08:48:24.709Z,23.67
2017-10-20T08:50:52.285Z,22.67
2017-10-20T08:53:19.872Z,25.03
2017-10-20T08:55:47.409Z,25.70
2017-10-20T08:58:16.008Z,23.53
2017-10-20T09:00:43.547Z,23.90
2017-10-20T09:03:11.087Z,23.27
2017-10-20T09:05:38.633Z,21.50
2017-10-20T09:08:06.233Z,20.97
2017-10-20T09:10:34.698Z,22.13
2017-10-20T09:13:02.237Z,23.17
2017-10-20T09:15:29.800Z,20.43
2017-10-20T09:17:57.338Z,22.80
2017-10-20T09:20:24.887Z,21.60
2017-10-20T09:22:52.429Z,19.40
2017-10-20T09:25:20.081Z,19.20
2017-10-20T09:27:47.623Z,20.57
2017-10-20T09:30:19.334Z,20.90
2017-10-20T09:32:46.957Z,18.87
2017-10-20T09:35:14.593Z,20.33
2017-10-20T09:37:42.188Z,18.47
2017-10-20T09:40:10.593Z,17.07
2017-10-20T09:42:38.224Z,18.93
2017-10-20T09:45:06.955Z,19.40
2017-10-20T09:47:34.545Z,19.17
2017-10-20T09:50:02.137Z,16.93
2017-10-20T09:52:29.670Z,17.30
2017-10-20T09:54:57.970Z,17.27
2017-10-20T09:57:26.330Z,16.20
2017-10-20T09:59:53.870Z,17.80
2017-10-20T10:02:21.461Z,13.53
2017-10-20T10:04:49.016Z,17.90
2017-10-20T10:07:16.553Z,15.80
2017-10-20T10:09:44.140Z,17.13
2017-10-20T10:12:11.682Z,16.67
2017-10-20T10:14:39.273Z,17.20
2017-10-20T10:17:06.822Z,15.00
2017-10-20T10:19:34.388Z,15.83
2017-10-20T10:22:01.923Z,16.07
2017-10-20T10:24:30.338Z,17.57
2017-10-20T10:26:57.909Z,15.20
2017-10-20T10:29:26.064Z,17.77
2017-10-20T10:31:54.905Z,15.77
2017-10-20T10:34:22.518Z,15.03
2017-10-20T10:36:50.104Z,17.07
2017-10-20T10:39:17.649Z,14.67
2017-10-20T10:41:46.083Z,18.13
2017-10-20T10:44:13.680Z,17.20
2017-10-20T10:46:42.145Z,15.30
2017-10-20T10:49:09.719Z,16.57
2017-10-20T10:51:38.060Z,13.83
2017-10-20T10:54:05.635Z,15.93
2017-10-20T10:56:33.901Z,15.43
2017-10-20T10:59:01.440Z,14.60
2017-10-20T11:01:29.728Z,13.77
2017-10-20T11:03:57.280Z,14.40
2017-10-20T11:06:36.695Z,13.90
2017-10-20T11:09:16.461Z,14.10
2017-10-20T11:11:55.965Z,14.63
2017-10-20T11:14:23.503Z,15.07
2017-10-20T11:16:51.937Z,14.47
2017-10-20T11:19:19.468Z,14.50
2017-10-20T11:21:48.875Z,16.80
2017-10-20T11:24:16.560Z,12.60
2017-10-20T11:26:44.096Z,14.57
2017-10-20T11:29:11.656Z,13.90
2017-10-20T11:31:40.041Z,14.23
2017-10-20T11:34:07.609Z,15.77
2017-10-20T11:36:35.979Z,13.90
2017-10-20T11:39:03.518Z,14.23
2017-10-20T11:41:31.931Z,13.63
2017-10-20T11:43:59.576Z,14.73
2017-10-20T11:46:27.900Z,13.93
2017-10-20T11:48:55.517Z,13.30
2017-10-20T11:51:23.758Z,14.47
2017-10-20T11:53:51.306Z,11.93
2017-10-20T11:56:19.377Z,14.97
2017-10-20T11:58:46.921Z,14.13
2017-10-20T12:01:14.463Z,13.33
2017-10-20T12:03:42.007Z,12.60
2017-10-20T12:06:09.568Z,14.33
2017-10-20T12:08:37.129Z,15.37
2017-10-20T12:11:04.664Z,13.20
2017-10-20T12:13:32.197Z,13.20
2017-10-20T12:15:59.740Z,13.97
2017-10-20T12:18:27.281Z,14.70
2017-10-20T12:20:54.823Z,15.73
2017-10-20T12:23:22.374Z,13.97
2017-10-20T12:25:49.964Z,15.63
2017-10-20T12:28:17.843Z,14.80
2017-10-20T12:30:46.203Z,14.37
2017-10-20T12:33:13.758Z,13.27
2017-10-20T12:35:41.299Z,15.73
2017-10-20T12:38:08.880Z,13.60
2017-10-20T12:40:37.257Z,14.97
2017-10-20T12:43:05.780Z,14.10
2017-10-20T12:45:33.333Z,15.20
2017-10-20T12:48:00.868Z,15.77
2017-10-20T12:50:28.402Z,15.67
2017-10-20T12:52:55.938Z,15.60
2017-10-20T12:55:23.536Z,15.20
2017-10-20T12:57:51.713Z,16.37
2017-10-20T13:00:20.735Z,14.07
2017-10-20T13:02:48.276Z,15.07
2017-10-20T13:05:15.820Z,15.83
2017-10-20T13:07:43.366Z,13.70
2017-10-20T13:10:10.902Z,15.40
2017-10-20T13:12:38.512Z,16.47
2017-10-20T13:15:06.051Z,17.30
2017-10-20T13:17:33.665Z,18.40
2017-10-20T13:20:01.300Z,17.97
2017-10-20T13:22:28.864Z,18.13
2017-10-20T13:24:56.440Z,18.00
2017-10-20T13:27:24.078Z,18.10
2017-10-20T13:29:51.604Z,16.67
2017-10-20T13:32:20.269Z,16.50
2017-10-20T13:34:48.648Z,16.03
2017-10-20T13:37:17.289Z,17.60
2017-10-20T13:39:44.853Z,16.23
2017-10-20T13:42:12.408Z,17.47
2017-10-20T13:44:39.989Z,15.70
2017-10-20T13:47:08.423Z,16.27
2017-10-20T13:49:36.967Z,16.73
2017-10-20T13:52:05.517Z,16.13
2017-10-20T13:54:33.828Z,17.20
2017-10-20T13:57:02.183Z,17.40
2017-10-20T13:59:30.535Z,20.77
2017-10-20T14:01:58.811Z,17.73
2017-10-20T14:04:27.245Z,19.43
2017-10-20T14:06:55.656Z,21.50
2017-10-20T14:09:24.108Z,20.63
2017-10-20T14:11:52.420Z,19.43
2017-10-20T14:14:19.953Z,17.67
2017-10-20T14:16:48.392Z,17.37
2017-10-20T14:19:15.925Z,18.30
2017-10-20T14:21:44.368Z,19.00
2017-10-20T14:24:11.942Z,17.70
2017-10-20T14:26:40.384Z,18.47
2017-10-20T14:29:08.036Z,16.97
2017-10-20T14:31:36.360Z,20.30
2017-10-20T14:34:03.928Z,19.57
2017-10-20T14:36:31.541Z,19.40
2017-10-20T14:38:59.801Z,17.07
2017-10-20T14:41:28.067Z,18.60
2017-10-20T14:43:55.658Z,17.90
2017-10-20T14:46:24.036Z,18.37
2017-10-20T14:48:51.596Z,19.20
2017-10-20T14:51:20.101Z,19.53
2017-10-20T14:53:47.636Z,19.30
2017-10-20T14:56:16.032Z,18.47
2017-10-20T14:58:43.572Z,18.87
2017-10-20T15:01:11.984Z,19.60
2017-10-20T15:03:40.332Z,21.07
2017-10-20T15:06:08.687Z,20.97
2017-10-20T15:08:42.064Z,21.70
2017-10-20T15:11:09.642Z,21.87
2017-10-20T15:13:38.089Z,22.53
2017-10-20T15:16:05.631Z,21.00
2017-10-20T15:18:33.166Z,21.70
2017-10-20T15:21:02.552Z,22.00
2017-10-20T15:23:30.780Z,24.47
2017-10-20T15:25:58.312Z,23.40
2017-10-20T15:28:25.852Z,23.80
2017-10-20T15:30:53.444Z,21.60
2017-10-20T15:33:20.997Z,22.30
2017-10-20T15:35:49.646Z,23.57
2017-10-20T15:38:18.140Z,25.23
2017-10-20T15:40:45.833Z,23.30
2017-10-20T15:43:13.369Z,24.57
2017-10-20T15:45:40.900Z,23.57
2017-10-20T15:48:08.445Z,22.80
2017-10-20T15:50:36.792Z,19.10
2017-10-20T15:53:04.326Z,24.50
2017-10-20T15:55:32.764Z,23.83
2017-10-20T15:58:00.833Z,25.63
2017-10-20T16:00:29.300Z,20.37
2017-10-20T16:02:56.835Z,24.23
2017-10-20T16:05:24.512Z,25.42
2017-10-20T16:07:52.949Z,24.70
2017-10-20T16:10:20.674Z,20.20
2017-10-20T16:12:48.211Z,24.53
2017-10-20T16:15:15.746Z,23.87
2017-10-20T16:17:43.337Z,24.13
2017-10-20T16:20:10.905Z,23.30
2017-10-20T16:22:38.480Z,23.20
2017-10-20T16:25:06.029Z,23.60
2017-10-20T16:27:33.573Z,23.37
2017-10-20T16:30:01.722Z,23.40
2017-10-20T16:32:29.311Z,23.13
2017-10-20T16:34:56.862Z,25.67
2017-10-20T16:37:26.015Z,24.23
2017-10-20T16:39:54.158Z,24.17
2017-10-20T16:42:22.360Z,26.83
2017-10-20T16:44:49.893Z,25.77
2017-10-20T16:47:17.432Z,27.50
2017-10-20T16:49:44.971Z,28.20
2017-10-20T16:52:12.533Z,27.37
2017-10-20T16:54:40.073Z,23.67
2017-10-20T16:57:07.617Z,25.90
2017-10-20T16:59:35.240Z,26.33
2017-10-20T17:02:03.697Z,26.97
2017-10-20T17:04:32.096Z,28.13
2017-10-20T17:06:59.628Z,28.87
2017-10-20T17:09:27.736Z,28.73
2017-10-20T17:11:55.300Z,25.30
2017-10-20T17:14:22.848Z,21.27
2017-10-20T17:16:50.383Z,26.60
2017-10-20T17:19:17.928Z,24.57
2017-10-20T17:21:45.516Z,20.57
2017-10-20T17:24:13.048Z,25.90
2017-10-20T17:26:40.621Z,22.13
2017-10-20T17:29:08.160Z,22.97
2017-10-20T17:31:35.705Z,26.03
2017-10-20T17:34:03.256Z,27.27
2017-10-20T17:36:30.795Z,25.60
2017-10-20T17:38:58.329Z,23.47
2017-10-20T17:41:25.921Z,25.40
2017-10-20T17:43:56.151Z,25.67
2017-10-20T17:46:23.709Z,24.63
2017-10-20T17:48:53.458Z,28.03
2017-10-20T17:51:20.996Z,26.63
2017-10-20T17:53:49.520Z,25.67
2017-10-20T17:56:19.176Z,24.67
2017-10-20T17:58:47.499Z,26.10
2017-10-20T18:01:15.940Z,28.60
2017-10-20T18:03:46.383Z,23.77
2017-10-20T18:06:13.950Z,24.00
2017-10-20T18:08:41.573Z,27.87
2017-10-20T18:11:09.910Z,28.30
2017-10-20T18:13:37.517Z,27.27
2017-10-20T18:16:05.269Z,26.87
2017-10-20T18:18:32.827Z,25.63
2017-10-20T18:21:00.371Z,25.97
2017-10-20T18:23:27.915Z,24.40
2017-10-20T18:25:55.522Z,25.83
2017-10-20T18:28:23.060Z,26.60
2017-10-20T18:30:51.397Z,24.70
2017-10-20T18:33:18.945Z,25.50
2017-10-20T18:35:46.485Z,27.17
2017-10-20T18:38:15.229Z,26.17
2017-10-20T18:40:42.769Z,25.63
2017-10-20T18:43:10.397Z,26.53
2017-10-20T18:45:37.940Z,26.10
2017-10-20T18:48:06.305Z,26.50
2017-10-20T18:50:34.629Z,24.80
2017-10-20T18:53:02.167Z,26.73
2017-10-20T18:55:29.704Z,25.57
2017-10-20T18:57:57.248Z,22.20
2017-10-20T19:00:24.825Z,25.63
2017-10-20T19:02:53.180Z,24.80
2017-10-20T19:05:20.711Z,25.93
2017-10-20T19:07:48.248Z,26.30
2017-10-20T19:10:16.241Z,29.87
2017-10-20T19:12:44.804Z,30.20
2017-10-20T19:15:12.380Z,31.40
2017-10-20T19:17:39.921Z,26.50
2017-10-20T19:20:07.460Z,29.90
2017-10-20T19:22:35.049Z,27.77
2017-10-20T19:25:02.617Z,28.83
2017-10-20T19:27:30.188Z,28.93
2017-10-20T19:29:57.731Z,29.90
2017-10-20T19:32:25.273Z,27.93
2017-10-20T19:34:52.866Z,27.13
2017-10-20T19:37:20.409Z,25.30
2017-10-20T19:39:47.939Z,23.80
2017-10-20T19:42:16.413Z,28.47
2017-10-20T19:44:44.017Z,26.70
2017-10-20T19:47:11.582Z,27.97
2017-10-20T19:49:51.874Z,27.60
2017-10-20T19:52:20.544Z,25.30
2017-10-20T19:54:48.156Z,23.30
2017-10-20T19:57:15.741Z,22.37
2017-10-20T19:59:44.173Z,20.23
2017-10-20T20:02:12.516Z,24.40
2017-10-20T20:04:40.273Z,21.60
2017-10-20T20:07:08.488Z,22.87
2017-10-20T20:09:37.087Z,20.67
2017-10-20T20:12:05.216Z,19.23
2017-10-20T20:14:33.921Z,19.00
2017-10-20T20:17:01.566Z,21.70
2017-10-20T20:19:30.244Z,23.90
2017-10-20T20:21:58.824Z,20.13
2017-10-20T20:24:27.409Z,26.20
2017-10-20T20:26:55.041Z,26.13
2017-10-20T20:29:23.862Z,23.47
2017-10-20T20:32:07.072Z,23.40
2017-10-20T20:34:34.656Z,24.40
2017-10-20T20:37:03.027Z,22.40
2017-10-20T20:39:30.886Z,17.50
2017-10-20T20:41:58.444Z,15.77
2017-10-20T20:44:25.984Z,15.37
2017-10-20T20:46:54.812Z,16.03
2017-10-20T20:49:24.015Z,16.43
2017-10-20T20:51:52.068Z,14.40
2017-10-20T20:54:19.848Z,14.73
2017-10-20T20:56:47.542Z,15.03
2017-10-20T20:59:15.076Z,14.40
2017-10-20T21:01:42.685Z,13.10
2017-10-20T21:04:10.958Z,13.03
2017-10-20T21:06:38.502Z,14.10
2017-10-20T21:09:06.129Z,13.37
2017-10-20T21:11:33.677Z,13.17
2017-10-20T21:14:02.574Z,13.33
2017-10-20T21:16:30.342Z,14.60
2017-10-20T21:18:58.746Z,14.27
2017-10-20T21:21:26.584Z,11.93
2017-10-20T21:23:55.384Z,14.10
2017-10-20T21:26:24.882Z,14.30
2017-10-20T21:28:52.872Z,15.97
2017-10-20T21:31:21.212Z,15.20
2017-10-20T21:33:48.744Z,16.63
2017-10-20T21:36:16.285Z,16.40
2017-10-20T21:38:45.860Z,16.33
2017-10-20T21:41:13.437Z,15.30
2017-10-20T21:43:42.957Z,15.90
2017-10-20T21:46:11.201Z,15.63
2017-10-20T21:48:42.641Z,18.43
2017-10-20T21:51:14.152Z,11.90
2017-10-20T21:53:45.413Z,13.30
2017-10-20T21:56:17.107Z,14.57
2017-10-20T21:58:45.004Z,13.33
2017-10-20T22:01:16.080Z,14.40
2017-10-20T22:06:19.255Z,13.30
2017-10-20T22:08:47.925Z,14.13
2017-10-20T22:11:15.843Z,15.23
2017-10-20T22:13:43.622Z,15.67
2017-10-20T22:16:11.432Z,16.70
2017-10-20T22:18:39.154Z,16.37
2017-10-20T22:21:09.271Z,13.90
2017-10-20T22:23:37.386Z,14.50
2017-10-20T22:26:05.253Z,14.90
2017-10-20T22:28:33.635Z,15.70
2017-10-20T22:31:01.953Z,14.27
2017-10-20T22:33:29.868Z,15.73
2017-10-20T22:35:57.744Z,14.93
2017-10-20T22:38:25.511Z,13.47
2017-10-20T22:40:53.254Z,16.23
2017-10-20T22:43:21.362Z,16.37
2017-10-20T22:45:49.377Z,15.50
2017-10-20T22:48:17.183Z,16.40
2017-10-20T22:50:45.263Z,14.80
2017-10-20T22:53:13.119Z,14.90
2017-10-20T22:55:40.797Z,15.00
2017-10-20T22:58:08.371Z,14.73
2017-10-20T23:00:36.011Z,14.80
2017-10-20T23:03:07.702Z,15.50
2017-10-20T23:05:36.144Z,15.37
2017-10-20T23:08:03.747Z,14.20
2017-10-20T23:10:31.328Z,16.13
2017-10-20T23:12:58.932Z,16.13
2017-10-20T23:15:27.284Z,17.13
2017-10-20T23:17:54.829Z,14.93
2017-10-20T23:20:22.376Z,14.27
2017-10-20T23:22:50.830Z,15.37
2017-10-20T23:25:18.475Z,15.53
2017-10-20T23:27:46.017Z,17.50
2017-10-20T23:30:13.596Z,15.33
2017-10-20T23:32:41.140Z,16.00
2017-10-20T23:35:09.440Z,16.80
2017-10-20T23:37:38.017Z,13.40
2017-10-20T23:40:06.357Z,16.50
2017-10-20T23:42:34.781Z,16.53
2017-10-20T23:45:02.321Z,16.97
2017-10-20T23:47:30.004Z,15.67
2017-10-20T23:49:58.224Z,15.00
2017-10-20T23:52:25.808Z,14.90
2017-10-20T23:54:54.286Z,15.13
2017-10-20T23:57:21.829Z,14.50
2017-10-20T23:59:50.361Z,13.87
